sensor_id;sensor_type;location;lat;lon;timestamp;P1;durP1;ratioP1;P2;durP2;ratioP2
61642;SDS011;47551;52.506;4.678;2022-11-20T00:00:10;16.00;;;10.73;;
61642;SDS011;47551;52.506;4.678;2022-11-20T00:00:30;16.52;;;11.15;;
61642;SDS011;47551;52.506;4.678;2022-11-20T00:00:51;16.17;;;11.00;;
61642;SDS011;47551;52.506;4.678;2022-11-20T00:01:31;14.70;;;11.00;;
61642;SDS011;47551;52.506;4.678;2022-11-20T00:01:51;16.83;;;11.67;;
61642;SDS011;47551;52.506;4.678;2022-11-20T00:02:11;16.60;;;11.60;;
61642;SDS011;47551;52.506;4.678;2022-11-20T00:02:32;16.58;;;11.30;;
61642;SDS011;47551;52.506;4.678;2022-11-20T00:02:52;15.40;;;10.90;;
61642;SDS011;47551;52.506;4.678;2022-11-20T00:03:12;16.43;;;11.20;;
61642;SDS011;47551;52.506;4.678;2022-11-20T00:03:32;16.23;;;11.20;;
61642;SDS011;47551;52.506;4.678;2022-11-20T00:03:53;16.60;;;11.20;;
61642;SDS011;47551;52.506;4.678;2022-11-20T00:04:14;16.52;;;11.20;;
61642;SDS011;47551;52.506;4.678;2022-11-20T00:04:34;16.13;;;11.50;;
61642;SDS011;47551;52.506;4.678;2022-11-20T00:04:54;15.77;;;11.38;;
61642;SDS011;47551;52.506;4.678;2022-11-20T00:05:14;16.33;;;11.17;;
61642;SDS011;47551;52.506;4.678;2022-11-20T00:05:34;15.87;;;10.73;;
61642;SDS011;47551;52.506;4.678;2022-11-20T00:05:59;15.17;;;10.67;;
61642;SDS011;47551;52.506;4.678;2022-11-20T00:06:19;16.58;;;11.10;;
61642;SDS011;47551;52.506;4.678;2022-11-20T00:06:39;16.40;;;11.30;;
61642;SDS011;47551;52.506;4.678;2022-11-20T00:07:00;16.27;;;11.07;;
61642;SDS011;47551;52.506;4.678;2022-11-20T00:07:20;15.93;;;11.30;;
61642;SDS011;47551;52.506;4.678;2022-11-20T00:07:40;15.90;;;11.33;;
61642;SDS011;47551;52.506;4.678;2022-11-20T00:08:00;15.82;;;11.10;;
61642;SDS011;47551;52.506;4.678;2022-11-20T00:08:21;15.07;;;10.50;;
61642;SDS011;47551;52.506;4.678;2022-11-20T00:08:41;15.73;;;10.83;;
61642;SDS011;47551;52.506;4.678;2022-11-20T00:09:02;16.42;;;11.07;;
61642;SDS011;47551;52.506;4.678;2022-11-20T00:09:22;16.37;;;11.47;;
61642;SDS011;47551;52.506;4.678;2022-11-20T00:09:42;16.07;;;11.23;;
61642;SDS011;47551;52.506;4.678;2022-11-20T00:10:02;15.52;;;11.20;;
61642;SDS011;47551;52.506;4.678;2022-11-20T00:10:22;16.50;;;11.27;;
61642;SDS011;47551;52.506;4.678;2022-11-20T00:10:43;16.30;;;11.20;;
61642;SDS011;47551;52.506;4.678;2022-11-20T00:11:04;15.17;;;11.00;;
61642;SDS011;47551;52.506;4.678;2022-11-20T00:11:25;15.50;;;10.93;;
61642;SDS011;47551;52.506;4.678;2022-11-20T00:11:46;16.00;;;10.88;;
61642;SDS011;47551;52.506;4.678;2022-11-20T00:12:06;15.40;;;10.85;;
61642;SDS011;47551;52.506;4.678;2022-11-20T00:12:26;16.07;;;11.13;;
61642;SDS011;47551;52.506;4.678;2022-11-20T00:12:46;15.50;;;10.97;;
61642;SDS011;47551;52.506;4.678;2022-11-20T00:13:06;16.07;;;10.83;;
61642;SDS011;47551;52.506;4.678;2022-11-20T00:13:27;16.05;;;10.70;;
61642;SDS011;47551;52.506;4.678;2022-11-20T00:13:48;16.63;;;11.40;;
61642;SDS011;47551;52.506;4.678;2022-11-20T00:14:08;16.92;;;11.93;;
61642;SDS011;47551;52.506;4.678;2022-11-20T00:14:29;16.33;;;11.30;;
61642;SDS011;47551;52.506;4.678;2022-11-20T00:14:49;16.00;;;11.20;;
61642;SDS011;47551;52.506;4.678;2022-11-20T00:15:09;16.83;;;11.63;;
61642;SDS011;47551;52.506;4.678;2022-11-20T00:15:30;16.37;;;11.50;;
61642;SDS011;47551;52.506;4.678;2022-11-20T00:15:56;15.80;;;11.30;;
61642;SDS011;47551;52.506;4.678;2022-11-20T00:16:18;15.98;;;11.35;;
61642;SDS011;47551;52.506;4.678;2022-11-20T00:16:38;16.14;;;11.48;;
61642;SDS011;47551;52.506;4.678;2022-11-20T00:16:58;15.70;;;11.13;;
61642;SDS011;47551;52.506;4.678;2022-11-20T00:17:18;15.63;;;11.37;;
61642;SDS011;47551;52.506;4.678;2022-11-20T00:17:38;16.90;;;11.57;;
61642;SDS011;47551;52.506;4.678;2022-11-20T00:17:59;15.33;;;10.87;;
61642;SDS011;47551;52.506;4.678;2022-11-20T00:18:19;15.25;;;11.00;;
61642;SDS011;47551;52.506;4.678;2022-11-20T00:18:39;17.23;;;12.10;;
61642;SDS011;47551;52.506;4.678;2022-11-20T00:18:59;17.17;;;11.60;;
61642;SDS011;47551;52.506;4.678;2022-11-20T00:19:19;16.17;;;11.48;;
61642;SDS011;47551;52.506;4.678;2022-11-20T00:19:40;16.00;;;11.57;;
61642;SDS011;47551;52.506;4.678;2022-11-20T00:20:00;16.00;;;11.60;;
61642;SDS011;47551;52.506;4.678;2022-11-20T00:20:20;16.47;;;11.03;;
61642;SDS011;47551;52.506;4.678;2022-11-20T00:20:40;16.88;;;11.10;;
61642;SDS011;47551;52.506;4.678;2022-11-20T00:21:04;16.80;;;11.50;;
61642;SDS011;47551;52.506;4.678;2022-11-20T00:21:25;16.30;;;11.55;;
61642;SDS011;47551;52.506;4.678;2022-11-20T00:21:46;15.93;;;11.27;;
61642;SDS011;47551;52.506;4.678;2022-11-20T00:22:06;16.65;;;11.30;;
61642;SDS011;47551;52.506;4.678;2022-11-20T00:22:26;15.57;;;11.00;;
61642;SDS011;47551;52.506;4.678;2022-11-20T00:22:46;15.53;;;11.23;;
61642;SDS011;47551;52.506;4.678;2022-11-20T00:23:07;16.10;;;11.27;;
61642;SDS011;47551;52.506;4.678;2022-11-20T00:23:27;16.45;;;11.45;;
61642;SDS011;47551;52.506;4.678;2022-11-20T00:23:48;16.70;;;11.30;;
61642;SDS011;47551;52.506;4.678;2022-11-20T00:24:08;15.82;;;10.98;;
61642;SDS011;47551;52.506;4.678;2022-11-20T00:24:29;16.27;;;11.55;;
61642;SDS011;47551;52.506;4.678;2022-11-20T00:24:49;17.33;;;11.57;;
61642;SDS011;47551;52.506;4.678;2022-11-20T00:25:09;16.67;;;11.30;;
61642;SDS011;47551;52.506;4.678;2022-11-20T00:25:30;16.50;;;11.53;;
61642;SDS011;47551;52.506;4.678;2022-11-20T00:25:50;16.87;;;11.70;;
61642;SDS011;47551;52.506;4.678;2022-11-20T00:26:11;16.83;;;11.30;;
61642;SDS011;47551;52.506;4.678;2022-11-20T00:26:32;15.63;;;11.25;;
61642;SDS011;47551;52.506;4.678;2022-11-20T00:26:52;15.85;;;11.48;;
61642;SDS011;47551;52.506;4.678;2022-11-20T00:27:12;16.33;;;11.40;;
61642;SDS011;47551;52.506;4.678;2022-11-20T00:27:33;17.00;;;11.80;;
61642;SDS011;47551;52.506;4.678;2022-11-20T00:27:53;17.23;;;11.80;;
61642;SDS011;47551;52.506;4.678;2022-11-20T00:28:13;16.77;;;11.73;;
61642;SDS011;47551;52.506;4.678;2022-11-20T00:28:33;16.63;;;11.77;;
61642;SDS011;47551;52.506;4.678;2022-11-20T00:28:55;16.53;;;11.53;;
61642;SDS011;47551;52.506;4.678;2022-11-20T00:29:15;15.75;;;11.27;;
61642;SDS011;47551;52.506;4.678;2022-11-20T00:29:35;15.97;;;11.43;;
61642;SDS011;47551;52.506;4.678;2022-11-20T00:29:55;16.60;;;11.73;;
61642;SDS011;47551;52.506;4.678;2022-11-20T00:30:15;16.13;;;11.50;;
61642;SDS011;47551;52.506;4.678;2022-11-20T00:30:36;16.93;;;11.77;;
61642;SDS011;47551;52.506;4.678;2022-11-20T00:31:03;16.60;;;11.87;;
61642;SDS011;47551;52.506;4.678;2022-11-20T00:31:23;16.90;;;11.10;;
61642;SDS011;47551;52.506;4.678;2022-11-20T00:31:43;15.93;;;11.10;;
61642;SDS011;47551;52.506;4.678;2022-11-20T00:32:04;16.17;;;11.37;;
61642;SDS011;47551;52.506;4.678;2022-11-20T00:32:24;15.70;;;11.40;;
61642;SDS011;47551;52.506;4.678;2022-11-20T00:32:44;15.35;;;11.20;;
61642;SDS011;47551;52.506;4.678;2022-11-20T00:33:04;15.20;;;11.10;;
61642;SDS011;47551;52.506;4.678;2022-11-20T00:33:24;15.70;;;11.47;;
61642;SDS011;47551;52.506;4.678;2022-11-20T00:33:45;16.47;;;11.67;;
61642;SDS011;47551;52.506;4.678;2022-11-20T00:34:05;16.80;;;11.25;;
61642;SDS011;47551;52.506;4.678;2022-11-20T00:34:25;16.03;;;11.23;;
61642;SDS011;47551;52.506;4.678;2022-11-20T00:34:45;16.90;;;11.50;;
61642;SDS011;47551;52.506;4.678;2022-11-20T00:35:06;15.93;;;11.20;;
61642;SDS011;47551;52.506;4.678;2022-11-20T00:35:26;15.40;;;10.83;;
61642;SDS011;47551;52.506;4.678;2022-11-20T00:35:46;16.60;;;11.33;;
61642;SDS011;47551;52.506;4.678;2022-11-20T00:36:07;17.77;;;11.33;;
61642;SDS011;47551;52.506;4.678;2022-11-20T00:36:28;15.85;;;10.95;;
61642;SDS011;47551;52.506;4.678;2022-11-20T00:36:51;15.80;;;10.93;;
61642;SDS011;47551;52.506;4.678;2022-11-20T00:37:11;17.30;;;10.97;;
61642;SDS011;47551;52.506;4.678;2022-11-20T00:37:31;17.20;;;10.83;;
61642;SDS011;47551;52.506;4.678;2022-11-20T00:37:51;16.03;;;10.90;;
61642;SDS011;47551;52.506;4.678;2022-11-20T00:38:11;16.00;;;10.93;;
61642;SDS011;47551;52.506;4.678;2022-11-20T00:38:32;15.10;;;10.63;;
61642;SDS011;47551;52.506;4.678;2022-11-20T00:38:53;14.98;;;10.75;;
61642;SDS011;47551;52.506;4.678;2022-11-20T00:39:13;15.85;;;11.07;;
61642;SDS011;47551;52.506;4.678;2022-11-20T00:39:33;16.47;;;10.87;;
61642;SDS011;47551;52.506;4.678;2022-11-20T00:39:53;16.50;;;11.10;;
61642;SDS011;47551;52.506;4.678;2022-11-20T00:40:14;16.48;;;11.20;;
61642;SDS011;47551;52.506;4.678;2022-11-20T00:40:34;16.43;;;11.40;;
61642;SDS011;47551;52.506;4.678;2022-11-20T00:40:55;16.03;;;11.10;;
61642;SDS011;47551;52.506;4.678;2022-11-20T00:41:15;15.52;;;10.82;;
61642;SDS011;47551;52.506;4.678;2022-11-20T00:41:35;15.93;;;11.20;;
61642;SDS011;47551;52.506;4.678;2022-11-20T00:41:56;15.57;;;11.30;;
61642;SDS011;47551;52.506;4.678;2022-11-20T00:42:16;15.00;;;10.87;;
61642;SDS011;47551;52.506;4.678;2022-11-20T00:42:36;16.10;;;11.10;;
61642;SDS011;47551;52.506;4.678;2022-11-20T00:42:56;16.48;;;11.43;;
61642;SDS011;47551;52.506;4.678;2022-11-20T00:43:16;16.60;;;11.70;;
61642;SDS011;47551;52.506;4.678;2022-11-20T00:43:36;16.07;;;11.23;;
61642;SDS011;47551;52.506;4.678;2022-11-20T00:43:57;15.87;;;10.70;;
61642;SDS011;47551;52.506;4.678;2022-11-20T00:44:17;15.87;;;11.03;;
61642;SDS011;47551;52.506;4.678;2022-11-20T00:44:37;15.80;;;11.07;;
61642;SDS011;47551;52.506;4.678;2022-11-20T00:44:57;15.73;;;11.10;;
61642;SDS011;47551;52.506;4.678;2022-11-20T00:45:18;15.50;;;10.95;;
61642;SDS011;47551;52.506;4.678;2022-11-20T00:45:38;16.37;;;11.50;;
61642;SDS011;47551;52.506;4.678;2022-11-20T00:45:58;16.30;;;11.43;;
61642;SDS011;47551;52.506;4.678;2022-11-20T00:46:20;16.17;;;11.18;;
61642;SDS011;47551;52.506;4.678;2022-11-20T00:46:40;15.13;;;11.25;;
61642;SDS011;47551;52.506;4.678;2022-11-20T00:47:01;15.80;;;11.10;;
61642;SDS011;47551;52.506;4.678;2022-11-20T00:47:21;16.00;;;11.17;;
61642;SDS011;47551;52.506;4.678;2022-11-20T00:47:41;15.47;;;11.17;;
61642;SDS011;47551;52.506;4.678;2022-11-20T00:48:01;16.42;;;11.30;;
61642;SDS011;47551;52.506;4.678;2022-11-20T00:48:21;16.70;;;11.23;;
61642;SDS011;47551;52.506;4.678;2022-11-20T00:48:42;16.67;;;11.50;;
61642;SDS011;47551;52.506;4.678;2022-11-20T00:49:02;16.60;;;11.45;;
61642;SDS011;47551;52.506;4.678;2022-11-20T00:49:22;16.03;;;11.00;;
61642;SDS011;47551;52.506;4.678;2022-11-20T00:49:42;16.57;;;11.17;;
61642;SDS011;47551;52.506;4.678;2022-11-20T00:50:03;16.23;;;11.23;;
61642;SDS011;47551;52.506;4.678;2022-11-20T00:50:23;17.25;;;11.27;;
61642;SDS011;47551;52.506;4.678;2022-11-20T00:50:43;16.70;;;10.77;;
61642;SDS011;47551;52.506;4.678;2022-11-20T00:51:03;17.00;;;11.37;;
61642;SDS011;47551;52.506;4.678;2022-11-20T00:51:24;16.40;;;11.43;;
61642;SDS011;47551;52.506;4.678;2022-11-20T00:51:45;16.75;;;11.70;;
61642;SDS011;47551;52.506;4.678;2022-11-20T00:52:05;16.90;;;11.60;;
61642;SDS011;47551;52.506;4.678;2022-11-20T00:52:25;16.40;;;11.60;;
61642;SDS011;47551;52.506;4.678;2022-11-20T00:52:45;15.63;;;11.13;;
61642;SDS011;47551;52.506;4.678;2022-11-20T00:53:05;16.97;;;11.97;;
61642;SDS011;47551;52.506;4.678;2022-11-20T00:53:25;16.07;;;11.43;;
61642;SDS011;47551;52.506;4.678;2022-11-20T00:53:46;16.13;;;11.23;;
61642;SDS011;47551;52.506;4.678;2022-11-20T00:54:06;16.33;;;11.68;;
61642;SDS011;47551;52.506;4.678;2022-11-20T00:54:26;17.03;;;11.57;;
61642;SDS011;47551;52.506;4.678;2022-11-20T00:54:46;16.93;;;11.47;;
61642;SDS011;47551;52.506;4.678;2022-11-20T00:55:07;17.20;;;11.27;;
61642;SDS011;47551;52.506;4.678;2022-11-20T00:55:27;16.50;;;11.60;;
61642;SDS011;47551;52.506;4.678;2022-11-20T00:56:00;15.77;;;11.40;;
61642;SDS011;47551;52.506;4.678;2022-11-20T00:56:20;17.08;;;11.55;;
61642;SDS011;47551;52.506;4.678;2022-11-20T00:56:40;17.40;;;11.27;;
61642;SDS011;47551;52.506;4.678;2022-11-20T00:57:01;16.67;;;11.57;;
61642;SDS011;47551;52.506;4.678;2022-11-20T00:57:21;16.07;;;11.67;;
61642;SDS011;47551;52.506;4.678;2022-11-20T00:57:41;16.33;;;11.30;;
61642;SDS011;47551;52.506;4.678;2022-11-20T00:58:01;16.85;;;11.13;;
61642;SDS011;47551;52.506;4.678;2022-11-20T00:58:22;16.67;;;11.53;;
61642;SDS011;47551;52.506;4.678;2022-11-20T00:58:43;16.27;;;11.73;;
61642;SDS011;47551;52.506;4.678;2022-11-20T00:59:04;16.10;;;11.32;;
61642;SDS011;47551;52.506;4.678;2022-11-20T00:59:24;16.57;;;11.73;;
61642;SDS011;47551;52.506;4.678;2022-11-20T00:59:44;16.77;;;11.73;;
61642;SDS011;47551;52.506;4.678;2022-11-20T01:00:04;16.53;;;11.60;;
61642;SDS011;47551;52.506;4.678;2022-11-20T01:00:25;16.87;;;11.57;;
61642;SDS011;47551;52.506;4.678;2022-11-20T01:00:45;16.83;;;11.70;;
61642;SDS011;47551;52.506;4.678;2022-11-20T01:01:06;16.90;;;11.53;;
61642;SDS011;47551;52.506;4.678;2022-11-20T01:01:27;16.75;;;11.70;;
61642;SDS011;47551;52.506;4.678;2022-11-20T01:01:49;17.05;;;12.00;;
61642;SDS011;47551;52.506;4.678;2022-11-20T01:02:09;17.00;;;11.50;;
61642;SDS011;47551;52.506;4.678;2022-11-20T01:02:29;17.30;;;11.53;;
61642;SDS011;47551;52.506;4.678;2022-11-20T01:02:49;17.57;;;11.80;;
61642;SDS011;47551;52.506;4.678;2022-11-20T01:03:09;17.60;;;11.93;;
61642;SDS011;47551;52.506;4.678;2022-11-20T01:03:36;18.67;;;12.40;;
61642;SDS011;47551;52.506;4.678;2022-11-20T01:03:58;17.52;;;11.35;;
61642;SDS011;47551;52.506;4.678;2022-11-20T01:04:19;18.17;;;12.18;;
61642;SDS011;47551;52.506;4.678;2022-11-20T01:04:39;17.20;;;11.93;;
61642;SDS011;47551;52.506;4.678;2022-11-20T01:04:59;17.53;;;11.87;;
61642;SDS011;47551;52.506;4.678;2022-11-20T01:05:19;17.07;;;12.00;;
61642;SDS011;47551;52.506;4.678;2022-11-20T01:05:39;17.97;;;11.77;;
61642;SDS011;47551;52.506;4.678;2022-11-20T01:06:00;16.73;;;11.20;;
61642;SDS011;47551;52.506;4.678;2022-11-20T01:06:22;16.38;;;11.48;;
61642;SDS011;47551;52.506;4.678;2022-11-20T01:06:42;17.30;;;11.57;;
61642;SDS011;47551;52.506;4.678;2022-11-20T01:07:02;17.37;;;11.53;;
61642;SDS011;47551;52.506;4.678;2022-11-20T01:07:22;15.67;;;10.87;;
61642;SDS011;47551;52.506;4.678;2022-11-20T01:07:42;16.33;;;11.43;;
61642;SDS011;47551;52.506;4.678;2022-11-20T01:08:03;17.43;;;11.97;;
61642;SDS011;47551;52.506;4.678;2022-11-20T01:08:23;17.30;;;11.87;;
61642;SDS011;47551;52.506;4.678;2022-11-20T01:08:43;16.73;;;11.50;;
61642;SDS011;47551;52.506;4.678;2022-11-20T01:09:05;16.85;;;11.52;;
61642;SDS011;47551;52.506;4.678;2022-11-20T01:09:25;15.52;;;11.43;;
61642;SDS011;47551;52.506;4.678;2022-11-20T01:09:45;16.03;;;11.33;;
61642;SDS011;47551;52.506;4.678;2022-11-20T01:10:06;17.30;;;11.73;;
61642;SDS011;47551;52.506;4.678;2022-11-20T01:10:26;17.80;;;12.05;;
61642;SDS011;47551;52.506;4.678;2022-11-20T01:10:46;16.97;;;11.23;;
61642;SDS011;47551;52.506;4.678;2022-11-20T01:11:11;16.60;;;11.20;;
61642;SDS011;47551;52.506;4.678;2022-11-20T01:11:32;17.13;;;11.90;;
61642;SDS011;47551;52.506;4.678;2022-11-20T01:11:53;17.10;;;11.77;;
61642;SDS011;47551;52.506;4.678;2022-11-20T01:12:13;16.40;;;11.47;;
61642;SDS011;47551;52.506;4.678;2022-11-20T01:12:33;16.63;;;11.67;;
61642;SDS011;47551;52.506;4.678;2022-11-20T01:12:53;17.27;;;11.80;;
61642;SDS011;47551;52.506;4.678;2022-11-20T01:13:33;16.33;;;11.23;;
61642;SDS011;47551;52.506;4.678;2022-11-20T01:13:57;16.42;;;11.23;;
61642;SDS011;47551;52.506;4.678;2022-11-20T01:14:18;16.52;;;11.52;;
61642;SDS011;47551;52.506;4.678;2022-11-20T01:14:38;16.25;;;11.48;;
61642;SDS011;47551;52.506;4.678;2022-11-20T01:14:59;16.97;;;11.53;;
61642;SDS011;47551;52.506;4.678;2022-11-20T01:15:19;17.30;;;11.87;;
61642;SDS011;47551;52.506;4.678;2022-11-20T01:15:39;16.50;;;11.80;;
61642;SDS011;47551;52.506;4.678;2022-11-20T01:16:29;18.63;;;12.40;;
61642;SDS011;47551;52.506;4.678;2022-11-20T01:16:50;18.27;;;12.35;;
61642;SDS011;47551;52.506;4.678;2022-11-20T01:17:11;18.02;;;11.60;;
61642;SDS011;47551;52.506;4.678;2022-11-20T01:17:31;19.40;;;12.27;;
61642;SDS011;47551;52.506;4.678;2022-11-20T01:17:51;17.10;;;11.87;;
61642;SDS011;47551;52.506;4.678;2022-11-20T01:18:11;17.30;;;11.88;;
61642;SDS011;47551;52.506;4.678;2022-11-20T01:18:31;18.37;;;12.23;;
61642;SDS011;47551;52.506;4.678;2022-11-20T01:18:53;17.20;;;12.00;;
61642;SDS011;47551;52.506;4.678;2022-11-20T01:19:15;16.48;;;12.05;;
61642;SDS011;47551;52.506;4.678;2022-11-20T01:19:35;17.65;;;12.18;;
61642;SDS011;47551;52.506;4.678;2022-11-20T01:19:55;17.52;;;11.93;;
61642;SDS011;47551;52.506;4.678;2022-11-20T01:20:15;16.87;;;11.97;;
61642;SDS011;47551;52.506;4.678;2022-11-20T01:20:36;16.50;;;12.23;;
61642;SDS011;47551;52.506;4.678;2022-11-20T01:21:00;16.42;;;12.18;;
61642;SDS011;47551;52.506;4.678;2022-11-20T01:21:24;16.55;;;11.95;;
61642;SDS011;47551;52.506;4.678;2022-11-20T01:21:45;18.95;;;12.85;;
61642;SDS011;47551;52.506;4.678;2022-11-20T01:22:07;17.35;;;12.25;;
61642;SDS011;47551;52.506;4.678;2022-11-20T01:22:27;17.13;;;12.20;;
61642;SDS011;47551;52.506;4.678;2022-11-20T01:22:47;18.10;;;11.93;;
61642;SDS011;47551;52.506;4.678;2022-11-20T01:23:07;18.00;;;12.13;;
61642;SDS011;47551;52.506;4.678;2022-11-20T01:23:30;17.37;;;12.40;;
61642;SDS011;47551;52.506;4.678;2022-11-20T01:23:50;17.10;;;11.93;;
61642;SDS011;47551;52.506;4.678;2022-11-20T01:24:11;16.95;;;11.88;;
61642;SDS011;47551;52.506;4.678;2022-11-20T01:24:32;17.00;;;11.90;;
61642;SDS011;47551;52.506;4.678;2022-11-20T01:24:52;17.83;;;12.03;;
61642;SDS011;47551;52.506;4.678;2022-11-20T01:25:12;17.50;;;12.13;;
61642;SDS011;47551;52.506;4.678;2022-11-20T01:25:33;17.63;;;12.23;;
61642;SDS011;47551;52.506;4.678;2022-11-20T01:25:53;17.38;;;12.40;;
61642;SDS011;47551;52.506;4.678;2022-11-20T01:26:18;16.80;;;12.30;;
61642;SDS011;47551;52.506;4.678;2022-11-20T01:26:39;16.63;;;11.93;;
61642;SDS011;47551;52.506;4.678;2022-11-20T01:27:00;17.95;;;12.18;;
61642;SDS011;47551;52.506;4.678;2022-11-20T01:27:20;17.23;;;11.93;;
61642;SDS011;47551;52.506;4.678;2022-11-20T01:27:40;16.37;;;11.40;;
61642;SDS011;47551;52.506;4.678;2022-11-20T01:28:00;17.50;;;12.17;;
61642;SDS011;47551;52.506;4.678;2022-11-20T01:28:20;17.83;;;12.43;;
61642;SDS011;47551;52.506;4.678;2022-11-20T01:28:41;18.60;;;12.37;;
61642;SDS011;47551;52.506;4.678;2022-11-20T01:29:01;17.35;;;12.43;;
61642;SDS011;47551;52.506;4.678;2022-11-20T01:29:23;16.77;;;11.90;;
61642;SDS011;47551;52.506;4.678;2022-11-20T01:29:43;16.90;;;11.80;;
61642;SDS011;47551;52.506;4.678;2022-11-20T01:30:04;17.30;;;12.30;;
61642;SDS011;47551;52.506;4.678;2022-11-20T01:30:24;17.17;;;12.00;;
61642;SDS011;47551;52.506;4.678;2022-11-20T01:30:44;16.70;;;11.98;;
61642;SDS011;47551;52.506;4.678;2022-11-20T01:31:37;17.37;;;12.17;;
61642;SDS011;47551;52.506;4.678;2022-11-20T01:31:51;18.55;;;12.50;;
61642;SDS011;47551;52.506;4.678;2022-11-20T01:32:12;18.00;;;12.18;;
61642;SDS011;47551;52.506;4.678;2022-11-20T01:32:32;17.83;;;12.17;;
61642;SDS011;47551;52.506;4.678;2022-11-20T01:32:52;17.27;;;12.23;;
61642;SDS011;47551;52.506;4.678;2022-11-20T01:33:14;16.98;;;12.23;;
61642;SDS011;47551;52.506;4.678;2022-11-20T01:33:34;17.15;;;11.95;;
61642;SDS011;47551;52.506;4.678;2022-11-20T01:33:56;16.53;;;11.80;;
61642;SDS011;47551;52.506;4.678;2022-11-20T01:34:17;17.30;;;12.13;;
61642;SDS011;47551;52.506;4.678;2022-11-20T01:34:38;17.17;;;11.80;;
61642;SDS011;47551;52.506;4.678;2022-11-20T01:34:58;16.90;;;11.80;;
61642;SDS011;47551;52.506;4.678;2022-11-20T01:35:18;16.00;;;11.97;;
61642;SDS011;47551;52.506;4.678;2022-11-20T01:35:38;16.20;;;12.17;;
61642;SDS011;47551;52.506;4.678;2022-11-20T01:36:05;17.10;;;12.10;;
61642;SDS011;47551;52.506;4.678;2022-11-20T01:36:26;16.10;;;11.25;;
61642;SDS011;47551;52.506;4.678;2022-11-20T01:36:46;17.15;;;12.13;;
61642;SDS011;47551;52.506;4.678;2022-11-20T01:37:06;17.63;;;12.50;;
61642;SDS011;47551;52.506;4.678;2022-11-20T01:37:27;16.70;;;11.87;;
61642;SDS011;47551;52.506;4.678;2022-11-20T01:37:47;16.45;;;11.85;;
61642;SDS011;47551;52.506;4.678;2022-11-20T01:38:07;16.37;;;11.80;;
61642;SDS011;47551;52.506;4.678;2022-11-20T01:38:27;17.70;;;11.93;;
61642;SDS011;47551;52.506;4.678;2022-11-20T01:38:47;17.00;;;11.90;;
61642;SDS011;47551;52.506;4.678;2022-11-20T01:39:10;17.80;;;11.95;;
61642;SDS011;47551;52.506;4.678;2022-11-20T01:39:31;17.08;;;12.07;;
61642;SDS011;47551;52.506;4.678;2022-11-20T01:39:51;17.80;;;12.53;;
61642;SDS011;47551;52.506;4.678;2022-11-20T01:40:11;16.80;;;11.60;;
61642;SDS011;47551;52.506;4.678;2022-11-20T01:40:31;16.80;;;11.97;;
61642;SDS011;47551;52.506;4.678;2022-11-20T01:40:54;17.17;;;11.83;;
61642;SDS011;47551;52.506;4.678;2022-11-20T01:41:15;15.50;;;11.35;;
61642;SDS011;47551;52.506;4.678;2022-11-20T01:41:56;16.88;;;11.60;;
61642;SDS011;47551;52.506;4.678;2022-11-20T01:42:34;16.73;;;11.63;;
61642;SDS011;47551;52.506;4.678;2022-11-20T01:43:16;17.90;;;11.82;;
61642;SDS011;47551;52.506;4.678;2022-11-20T01:43:42;16.42;;;11.85;;
61642;SDS011;47551;52.506;4.678;2022-11-20T01:44:03;17.50;;;12.30;;
61642;SDS011;47551;52.506;4.678;2022-11-20T01:45:42;17.48;;;12.07;;
61642;SDS011;47551;52.506;4.678;2022-11-20T01:46:05;17.08;;;11.75;;
61642;SDS011;47551;52.506;4.678;2022-11-20T01:46:26;18.05;;;12.07;;
61642;SDS011;47551;52.506;4.678;2022-11-20T01:46:52;17.60;;;11.93;;
61642;SDS011;47551;52.506;4.678;2022-11-20T01:47:21;16.75;;;11.80;;
61642;SDS011;47551;52.506;4.678;2022-11-20T01:47:43;17.45;;;12.10;;
61642;SDS011;47551;52.506;4.678;2022-11-20T01:48:04;16.27;;;11.88;;
61642;SDS011;47551;52.506;4.678;2022-11-20T01:48:25;16.67;;;11.47;;
61642;SDS011;47551;52.506;4.678;2022-11-20T01:49:24;16.70;;;11.68;;
61642;SDS011;47551;52.506;4.678;2022-11-20T01:49:46;16.75;;;11.82;;
61642;SDS011;47551;52.506;4.678;2022-11-20T01:50:17;15.43;;;11.32;;
61642;SDS011;47551;52.506;4.678;2022-11-20T01:50:38;18.38;;;12.68;;
61642;SDS011;47551;52.506;4.678;2022-11-20T01:50:59;17.00;;;12.35;;
61642;SDS011;47551;52.506;4.678;2022-11-20T01:51:23;18.23;;;11.95;;
61642;SDS011;47551;52.506;4.678;2022-11-20T01:51:46;16.45;;;11.82;;
61642;SDS011;47551;52.506;4.678;2022-11-20T01:52:17;17.63;;;12.05;;
61642;SDS011;47551;52.506;4.678;2022-11-20T01:52:46;16.80;;;11.73;;
61642;SDS011;47551;52.506;4.678;2022-11-20T01:53:09;17.95;;;12.02;;
61642;SDS011;47551;52.506;4.678;2022-11-20T01:53:32;16.70;;;11.90;;
61642;SDS011;47551;52.506;4.678;2022-11-20T01:53:54;17.15;;;11.80;;
61642;SDS011;47551;52.506;4.678;2022-11-20T01:54:17;17.10;;;11.95;;
61642;SDS011;47551;52.506;4.678;2022-11-20T01:54:39;17.02;;;12.07;;
61642;SDS011;47551;52.506;4.678;2022-11-20T01:55:05;17.17;;;11.98;;
61642;SDS011;47551;52.506;4.678;2022-11-20T01:55:28;16.20;;;11.25;;
61642;SDS011;47551;52.506;4.678;2022-11-20T01:55:51;17.30;;;11.57;;
61642;SDS011;47551;52.506;4.678;2022-11-20T01:56:11;17.25;;;11.60;;
61642;SDS011;47551;52.506;4.678;2022-11-20T01:56:33;18.20;;;12.03;;
61642;SDS011;47551;52.506;4.678;2022-11-20T01:56:56;17.55;;;11.75;;
61642;SDS011;47551;52.506;4.678;2022-11-20T01:57:17;16.55;;;11.82;;
61642;SDS011;47551;52.506;4.678;2022-11-20T01:57:38;16.90;;;11.48;;
61642;SDS011;47551;52.506;4.678;2022-11-20T01:57:58;17.90;;;11.87;;
61642;SDS011;47551;52.506;4.678;2022-11-20T01:58:20;17.50;;;12.35;;
61642;SDS011;47551;52.506;4.678;2022-11-20T01:58:44;16.45;;;12.00;;
61642;SDS011;47551;52.506;4.678;2022-11-20T01:59:05;16.13;;;11.63;;
61642;SDS011;47551;52.506;4.678;2022-11-20T01:59:27;17.00;;;11.68;;
61642;SDS011;47551;52.506;4.678;2022-11-20T01:59:50;18.15;;;12.35;;
61642;SDS011;47551;52.506;4.678;2022-11-20T02:00:13;17.27;;;11.63;;
61642;SDS011;47551;52.506;4.678;2022-11-20T02:00:33;18.23;;;12.38;;
61642;SDS011;47551;52.506;4.678;2022-11-20T02:00:54;17.10;;;12.20;;
61642;SDS011;47551;52.506;4.678;2022-11-20T02:01:14;16.33;;;11.83;;
61642;SDS011;47551;52.506;4.678;2022-11-20T02:01:34;16.48;;;11.90;;
61642;SDS011;47551;52.506;4.678;2022-11-20T02:01:55;16.63;;;11.93;;
61642;SDS011;47551;52.506;4.678;2022-11-20T02:02:15;16.30;;;11.70;;
61642;SDS011;47551;52.506;4.678;2022-11-20T02:02:35;16.30;;;11.65;;
61642;SDS011;47551;52.506;4.678;2022-11-20T02:02:57;17.33;;;12.13;;
61642;SDS011;47551;52.506;4.678;2022-11-20T02:03:18;16.50;;;11.52;;
61642;SDS011;47551;52.506;4.678;2022-11-20T02:03:39;16.52;;;11.48;;
61642;SDS011;47551;52.506;4.678;2022-11-20T02:03:59;16.47;;;11.90;;
61642;SDS011;47551;52.506;4.678;2022-11-20T02:04:20;15.90;;;11.35;;
61642;SDS011;47551;52.506;4.678;2022-11-20T02:04:40;17.07;;;11.93;;
61642;SDS011;47551;52.506;4.678;2022-11-20T02:05:02;17.50;;;11.97;;
61642;SDS011;47551;52.506;4.678;2022-11-20T02:05:44;17.05;;;11.60;;
61642;SDS011;47551;52.506;4.678;2022-11-20T02:06:19;17.00;;;11.48;;
61642;SDS011;47551;52.506;4.678;2022-11-20T02:06:46;17.67;;;11.88;;
61642;SDS011;47551;52.506;4.678;2022-11-20T02:07:07;16.73;;;12.18;;
61642;SDS011;47551;52.506;4.678;2022-11-20T02:07:27;16.83;;;11.88;;